Time;durP1;ratioP1;P1;durP2;ratioP2;P2;SDS_P1;SDS_P2;PMS_P1;PMS_P2;Temp;Humidity;BMP_temperature;BMP_pressure;BME280_temperature;BME280_humidity;BME280_pressure;Samples;Min_cycle;Max_cycle;Signal;HPM_P1;HPM_P2
2022/06/09 00:00:31;;;;;;;2.60;1.60;;;;;;;;;;5049676;28;20207;-63
2022/06/09 00:03:01;;;;;;;5.07;1.83;;;;;;;;;;5046651;28;20230;-63
2022/06/09 00:05:29;;;;;;;4.10;1.80;;;;;;;;;;5053069;28;20667;-63
2022/06/09 00:07:57;;;;;;;3.00;1.50;;;;;;;;;;5049075;28;20209;-63
2022/06/09 00:10:28;;;;;;;3.60;1.67;;;;;;;;;;5050825;28;20217;-63
2022/06/09 00:12:55;;;;;;;2.90;1.40;;;;;;;;;;5049025;28;20190;-63
2022/06/09 00:15:22;;;;;;;4.13;1.77;;;;;;;;;;5045713;28;20217;-63
2022/06/09 00:17:50;;;;;;;3.63;1.50;;;;;;;;;;5042894;28;20556;-63
2022/06/09 00:20:17;;;;;;;3.83;1.93;;;;;;;;;;5047959;28;20194;-63
2022/06/09 00:22:44;;;;;;;5.33;1.50;;;;;;;;;;5036700;28;20222;-63
2022/06/09 00:25:12;;;;;;;3.53;1.53;;;;;;;;;;5048161;28;20194;-64
2022/06/09 00:27:40;;;;;;;4.20;1.73;;;;;;;;;;5042728;28;20290;-64
2022/06/09 00:30:09;;;;;;;3.80;1.70;;;;;;;;;;5047566;28;20198;-63
2022/06/09 00:32:36;;;;;;;5.17;1.67;;;;;;;;;;5044687;28;20199;-64
2022/06/09 00:35:04;;;;;;;5.77;1.80;;;;;;;;;;5044659;28;20401;-64
2022/06/09 00:37:45;;;;;;;8.40;2.10;;;;;;;;;;5045355;28;20214;-63
2022/06/09 00:40:17;;;;;;;2.97;1.53;;;;;;;;;;5030557;28;20198;-63
2022/06/09 00:42:48;;;;;;;6.03;1.60;;;;;;;;;;5018645;28;20241;-63
2022/06/09 00:45:46;;;;;;;3.57;1.30;;;;;;;;;;5046123;28;20209;-63
2022/06/09 00:48:32;;;;;;;8.97;2.00;;;;;;;;;;5045432;28;20182;-64
2022/06/09 00:51:11;;;;;;;4.17;1.73;;;;;;;;;;5046445;28;20201;-63
2022/06/09 00:53:52;;;;;;;6.53;1.60;;;;;;;;;;5044358;28;20197;-63
2022/06/09 00:56:23;;;;;;;3.37;1.43;;;;;;;;;;5048266;28;20197;-63
2022/06/09 00:58:55;;;;;;;5.40;1.83;;;;;;;;;;5053485;28;20198;-63
2022/06/09 01:01:29;;;;;;;5.60;1.70;;;;;;;;;;5052806;28;20209;-63
2022/06/09 01:04:06;;;;;;;5.43;1.70;;;;;;;;;;5037218;28;20236;-63
2022/06/09 01:06:48;;;;;;;4.13;1.77;;;;;;;;;;5033564;28;20202;-63
2022/06/09 01:09:24;;;;;;;3.47;1.57;;;;;;;;;;5048416;28;20878;-64
2022/06/09 01:11:56;;;;;;;4.90;1.83;;;;;;;;;;5043111;28;20210;-63
2022/06/09 01:14:28;;;;;;;5.63;1.97;;;;;;;;;;5050626;28;20237;-64
2022/06/09 01:17:07;;;;;;;4.57;2.00;;;;;;;;;;5033492;28;20276;-63
2022/06/09 01:19:45;;;;;;;4.03;1.70;;;;;;;;;;5042075;28;20206;-64
2022/06/09 01:22:33;;;;;;;4.90;1.80;;;;;;;;;;5028705;28;20206;-63
2022/06/09 01:25:07;;;;;;;3.80;1.90;;;;;;;;;;5045737;28;20217;-63
2022/06/09 01:27:55;;;;;;;5.03;2.10;;;;;;;;;;5041595;28;20636;-64
2022/06/09 01:30:44;;;;;;;5.67;1.97;;;;;;;;;;5046218;28;20198;-64
2022/06/09 01:33:19;;;;;;;4.60;1.70;;;;;;;;;;5045409;28;20238;-63
2022/06/09 01:35:59;;;;;;;6.97;2.30;;;;;;;;;;5027285;28;20817;-63
2022/06/09 01:38:30;;;;;;;5.67;1.97;;;;;;;;;;5034940;28;20639;-63
2022/06/09 01:41:03;;;;;;;6.67;2.20;;;;;;;;;;5046109;28;20525;-64
2022/06/09 01:43:36;;;;;;;4.70;2.30;;;;;;;;;;5029152;28;20213;-64
2022/06/09 01:46:08;;;;;;;5.27;2.23;;;;;;;;;;5047132;28;20194;-63
2022/06/09 01:48:36;;;;;;;6.53;2.33;;;;;;;;;;5029352;28;20624;-64
2022/06/09 01:51:14;;;;;;;3.70;1.50;;;;;;;;;;5043976;28;20664;-64
2022/06/09 01:53:57;;;;;;;6.00;2.33;;;;;;;;;;5019439;28;20194;-63
2022/06/09 01:56:31;;;;;;;5.77;1.83;;;;;;;;;;5044077;28;20207;-64
2022/06/09 01:59:29;;;;;;;6.43;2.00;;;;;;;;;;5046520;28;20281;-64
2022/06/09 02:02:06;;;;;;;5.63;2.10;;;;;;;;;;5023407;28;20604;-64
2022/06/09 02:04:38;;;;;;;5.37;2.27;;;;;;;;;;5030542;28;20217;-64
2022/06/09 02:07:07;;;;;;;5.40;2.27;;;;;;;;;;5032665;28;20289;-63
2022/06/09 02:09:35;;;;;;;4.70;1.93;;;;;;;;;;5049552;28;20205;-63
2022/06/09 02:12:05;;;;;;;4.27;1.87;;;;;;;;;;5039179;28;21729;-64
2022/06/09 02:14:42;;;;;;;6.90;2.00;;;;;;;;;;5044463;28;20207;-63
2022/06/09 02:17:09;;;;;;;6.63;2.33;;;;;;;;;;5045376;28;20195;-63
2022/06/09 02:19:39;;;;;;;6.20;2.20;;;;;;;;;;5043147;28;20210;-63
2022/06/09 02:22:06;;;;;;;5.80;2.10;;;;;;;;;;5045091;28;20198;-64
2022/06/09 02:24:34;;;;;;;4.40;1.80;;;;;;;;;;5047414;28;20217;-64
2022/06/09 02:27:01;;;;;;;7.77;2.60;;;;;;;;;;5044270;28;20361;-63
2022/06/09 02:29:28;;;;;;;6.33;2.07;;;;;;;;;;5046603;28;20209;-64
2022/06/09 02:31:55;;;;;;;6.50;2.57;;;;;;;;;;5043956;28;20216;-64
2022/06/09 02:34:23;;;;;;;5.10;2.43;;;;;;;;;;5045708;28;20236;-63
2022/06/09 02:36:50;;;;;;;7.33;2.90;;;;;;;;;;5048405;28;20229;-63
2022/06/09 02:39:17;;;;;;;5.07;2.50;;;;;;;;;;5049275;28;20668;-64
2022/06/09 02:41:44;;;;;;;6.23;2.60;;;;;;;;;;5042876;28;20201;-64
2022/06/09 02:44:12;;;;;;;9.13;2.50;;;;;;;;;;5045151;28;20213;-64
2022/06/09 02:46:39;;;;;;;7.40;2.30;;;;;;;;;;5046174;28;20591;-63
2022/06/09 02:49:07;;;;;;;7.47;2.60;;;;;;;;;;5057281;28;20193;-64
2022/06/09 02:51:42;;;;;;;7.80;2.70;;;;;;;;;;5033457;28;20218;-63
2022/06/09 02:54:16;;;;;;;8.47;2.50;;;;;;;;;;5049939;28;20224;-64
2022/06/09 02:56:46;;;;;;;7.40;2.30;;;;;;;;;;5038939;28;20297;-64
2022/06/09 02:59:16;;;;;;;8.13;2.50;;;;;;;;;;5046414;28;20194;-64
2022/06/09 03:01:43;;;;;;;5.67;2.00;;;;;;;;;;5040215;28;20194;-63
2022/06/09 03:04:10;;;;;;;6.80;2.27;;;;;;;;;;5028300;28;20283;-64
2022/06/09 03:06:38;;;;;;;7.17;2.83;;;;;;;;;;5050889;28;20264;-63
2022/06/09 03:09:05;;;;;;;6.43;2.67;;;;;;;;;;5033058;28;20201;-64
2022/06/09 03:11:32;;;;;;;7.93;2.20;;;;;;;;;;5045703;28;20190;-64
2022/06/09 03:14:01;;;;;;;8.10;2.13;;;;;;;;;;5044903;28;20314;-63
2022/06/09 03:16:28;;;;;;;6.43;2.97;;;;;;;;;;5048835;28;20198;-64
2022/06/09 03:18:55;;;;;;;7.30;2.50;;;;;;;;;;5032163;28;20655;-63
2022/06/09 03:21:22;;;;;;;6.60;2.43;;;;;;;;;;5049327;28;20190;-63
2022/06/09 03:23:51;;;;;;;7.60;2.50;;;;;;;;;;5048584;28;20214;-63
2022/06/09 03:26:19;;;;;;;8.53;2.73;;;;;;;;;;5052367;28;20221;-63
2022/06/09 03:28:46;;;;;;;9.60;2.47;;;;;;;;;;5046948;28;20194;-63
2022/06/09 03:31:13;;;;;;;11.20;2.83;;;;;;;;;;5031933;28;20210;-63
2022/06/09 03:33:40;;;;;;;8.03;3.03;;;;;;;;;;5046267;28;20239;-63
2022/06/09 03:36:08;;;;;;;6.87;2.90;;;;;;;;;;5048233;28;20205;-63
2022/06/09 03:38:35;;;;;;;8.37;3.03;;;;;;;;;;5046429;28;20224;-63
2022/06/09 03:41:03;;;;;;;7.93;2.27;;;;;;;;;;5048793;28;20202;-63
2022/06/09 03:43:30;;;;;;;5.87;2.60;;;;;;;;;;5048012;28;20214;-63
2022/06/09 03:45:57;;;;;;;6.23;2.30;;;;;;;;;;5047590;28;20309;-63
2022/06/09 03:48:24;;;;;;;8.97;2.77;;;;;;;;;;5048886;28;20209;-63
2022/06/09 03:50:52;;;;;;;7.33;2.73;;;;;;;;;;5046120;28;20202;-63
2022/06/09 03:53:19;;;;;;;6.90;2.30;;;;;;;;;;5049425;28;20199;-64
2022/06/09 03:55:46;;;;;;;8.27;2.83;;;;;;;;;;5050664;28;20190;-63
2022/06/09 03:58:14;;;;;;;7.07;2.40;;;;;;;;;;5041725;28;20619;-63
2022/06/09 04:00:41;;;;;;;8.27;2.87;;;;;;;;;;5030029;28;20202;-63
2022/06/09 04:03:08;;;;;;;9.43;3.10;;;;;;;;;;5045549;28;20210;-63
2022/06/09 04:05:37;;;;;;;9.43;2.83;;;;;;;;;;5046658;28;20190;-63
2022/06/09 04:08:04;;;;;;;8.80;2.77;;;;;;;;;;5053517;28;20662;-63
2022/06/09 04:10:32;;;;;;;7.27;2.67;;;;;;;;;;5048738;28;20183;-64
2022/06/09 04:13:00;;;;;;;8.97;2.87;;;;;;;;;;5047587;28;20221;-63
2022/06/09 04:15:27;;;;;;;9.03;2.83;;;;;;;;;;5045969;28;20202;-63
2022/06/09 04:17:54;;;;;;;8.20;2.73;;;;;;;;;;5045525;28;20203;-63
2022/06/09 04:20:24;;;;;;;8.23;2.90;;;;;;;;;;5048587;28;20202;-64
2022/06/09 04:22:52;;;;;;;7.00;2.37;;;;;;;;;;5048667;28;20194;-62
2022/06/09 04:25:20;;;;;;;8.33;3.00;;;;;;;;;;5047838;28;20210;-63
2022/06/09 04:27:47;;;;;;;7.17;3.00;;;;;;;;;;5042960;28;20271;-63
2022/06/09 04:30:15;;;;;;;7.40;2.90;;;;;;;;;;5048857;28;20195;-63
2022/06/09 04:32:51;;;;;;;6.33;2.57;;;;;;;;;;5048125;28;20209;-63
2022/06/09 04:35:18;;;;;;;9.20;3.17;;;;;;;;;;5050020;28;20238;-63
2022/06/09 04:38:01;;;;;;;7.80;3.20;;;;;;;;;;5044253;28;20209;-63
2022/06/09 04:40:29;;;;;;;10.03;3.00;;;;;;;;;;5044743;28;20205;-63
2022/06/09 04:42:56;;;;;;;7.47;2.77;;;;;;;;;;5048528;28;20198;-63
2022/06/09 04:45:24;;;;;;;8.30;3.07;;;;;;;;;;5048962;28;20214;-63
2022/06/09 04:47:51;;;;;;;7.93;2.43;;;;;;;;;;5044945;28;20206;-63
2022/06/09 04:50:19;;;;;;;6.13;2.67;;;;;;;;;;5045498;28;20206;-63
2022/06/09 04:52:46;;;;;;;9.57;3.17;;;;;;;;;;5023948;28;20202;-63
2022/06/09 04:55:14;;;;;;;10.27;3.27;;;;;;;;;;5057607;28;20195;-63
2022/06/09 04:57:41;;;;;;;9.30;3.27;;;;;;;;;;5038835;28;20599;-63
2022/06/09 05:00:10;;;;;;;6.97;2.73;;;;;;;;;;5048017;28;20194;-64
2022/06/09 05:02:37;;;;;;;7.97;2.90;;;;;;;;;;5045826;28;20227;-64
2022/06/09 05:05:05;;;;;;;7.60;2.80;;;;;;;;;;5048796;28;20218;-64
2022/06/09 05:07:32;;;;;;;10.77;2.67;;;;;;;;;;5040350;28;20191;-65
2022/06/09 05:10:00;;;;;;;8.00;2.57;;;;;;;;;;5031049;28;20195;-64
2022/06/09 05:12:27;;;;;;;7.63;3.00;;;;;;;;;;5047096;28;20190;-64
2022/06/09 05:14:57;;;;;;;8.33;3.03;;;;;;;;;;5039918;28;20195;-63
2022/06/09 05:17:24;;;;;;;16.10;4.30;;;;;;;;;;5037330;28;20285;-64
2022/06/09 05:19:51;;;;;;;44.10;14.10;;;;;;;;;;5038383;28;20560;-65
2022/06/09 05:22:19;;;;;;;49.80;13.50;;;;;;;;;;5041881;28;20199;-63
2022/06/09 05:24:46;;;;;;;31.77;10.30;;;;;;;;;;5043879;28;20285;-64
2022/06/09 05:27:15;;;;;;;27.47;7.77;;;;;;;;;;5045270;28;21561;-64
2022/06/09 05:29:42;;;;;;;23.23;7.53;;;;;;;;;;5045220;28;20563;-64
2022/06/09 05:32:09;;;;;;;19.33;6.30;;;;;;;;;;5045703;28;20214;-63
2022/06/09 05:34:39;;;;;;;19.47;5.50;;;;;;;;;;5044273;28;20234;-63
2022/06/09 05:37:06;;;;;;;16.83;5.80;;;;;;;;;;5032610;28;20250;-63
2022/06/09 05:45:06;;;;;;;14.30;4.97;;;;;;;;;;5038678;28;20689;-63
2022/06/09 05:47:34;;;;;;;12.53;4.00;;;;;;;;;;5045369;28;20706;-63
2022/06/09 05:50:01;;;;;;;9.13;4.20;;;;;;;;;;5027090;28;20186;-64
2022/06/09 05:52:30;;;;;;;12.87;4.37;;;;;;;;;;5048006;28;20199;-64
2022/06/09 05:54:57;;;;;;;10.70;3.70;;;;;;;;;;5048002;28;20206;-63
2022/06/09 05:57:26;;;;;;;13.90;3.90;;;;;;;;;;5047670;28;20547;-63
2022/06/09 05:59:53;;;;;;;11.10;3.63;;;;;;;;;;5044692;28;20213;-64
2022/06/09 06:02:22;;;;;;;12.97;3.90;;;;;;;;;;5045128;28;20214;-64
2022/06/09 06:04:49;;;;;;;12.37;3.90;;;;;;;;;;5047347;28;20541;-64
2022/06/09 06:07:17;;;;;;;10.63;3.53;;;;;;;;;;5047187;28;20537;-63
2022/06/09 06:09:44;;;;;;;11.57;3.70;;;;;;;;;;5026723;28;20199;-64
2022/06/09 06:12:13;;;;;;;13.53;3.90;;;;;;;;;;5029492;28;20590;-65
2022/06/09 06:14:43;;;;;;;14.03;3.90;;;;;;;;;;5042574;28;20190;-64
2022/06/09 06:17:12;;;;;;;13.93;4.83;;;;;;;;;;5029154;28;20209;-62
2022/06/09 06:19:42;;;;;;;9.83;3.70;;;;;;;;;;5022207;28;20198;-63
2022/06/09 06:22:09;;;;;;;14.20;3.63;;;;;;;;;;5043471;28;20213;-63
2022/06/09 06:24:36;;;;;;;7.93;3.40;;;;;;;;;;5047053;28;20297;-63
2022/06/09 06:27:04;;;;;;;10.40;3.70;;;;;;;;;;5047930;28;20209;-64
2022/06/09 06:29:51;;;;;;;9.90;3.57;;;;;;;;;;5042082;28;20273;-64
2022/06/09 06:32:18;;;;;;;9.60;3.30;;;;;;;;;;5040024;28;20190;-64
2022/06/09 06:34:45;;;;;;;11.70;4.20;;;;;;;;;;5045245;28;20296;-64
2022/06/09 06:37:13;;;;;;;9.17;3.33;;;;;;;;;;5038866;28;20202;-64
2022/06/09 06:39:40;;;;;;;50.10;10.93;;;;;;;;;;5042442;28;20289;-64
2022/06/09 06:42:07;;;;;;;28.60;7.50;;;21.60;60.10;;;;;;5034678;28;20221;-65
2022/06/09 06:44:34;;;;;;;18.30;5.73;;;21.60;61.40;;;;;;5042262;28;20572;-66
2022/06/09 06:47:01;;;;;;;16.20;5.67;;;21.60;61.60;;;;;;5046685;28;20190;-67
2022/06/09 06:49:28;;;;;;;14.30;4.90;;;21.50;61.60;;;;;;5049747;28;20194;-66
2022/06/09 06:51:55;;;;;;;10.90;4.53;;;;;;;;;;5037812;28;20203;-68
2022/06/09 06:54:22;;;;;;;14.00;4.20;;;21.60;61.10;;;;;;5050070;28;20665;-67
2022/06/09 06:56:51;;;;;;;11.20;4.20;;;21.50;61.20;;;;;;5051015;28;20209;-67
2022/06/09 06:59:23;;;;;;;9.83;3.80;;;21.60;61.30;;;;;;5050554;28;20210;-67
2022/06/09 07:01:53;;;;;;;11.50;3.57;;;21.60;61.20;;;;;;5026717;28;20190;-68
2022/06/09 07:04:23;;;;;;;13.47;3.40;;;21.70;61.20;;;;;;5042613;28;20218;-68
2022/06/09 07:06:56;;;;;;;10.37;3.27;;;21.70;60.60;;;;;;5035884;28;20198;-68
2022/06/09 07:09:26;;;;;;;8.53;2.73;;;21.80;60.30;;;;;;5050339;28;20198;-65
2022/06/09 07:11:58;;;;;;;10.33;3.50;;;21.80;60.00;;;;;;5058457;28;20244;-64
2022/06/09 07:14:27;;;;;;;6.60;2.93;;;21.80;60.60;;;;;;5047894;28;20232;-65
2022/06/09 07:16:54;;;;;;;9.37;2.80;;;21.80;60.00;;;;;;5016728;28;20214;-68
2022/06/09 07:19:21;;;;;;;8.10;2.90;;;21.90;59.60;;;;;;5049985;28;20202;-68
2022/06/09 07:21:48;;;;;;;6.23;2.70;;;22.00;59.70;;;;;;5049466;28;20202;-67
2022/06/09 07:24:15;;;;;;;8.77;2.60;;;;;;;;;;5050641;28;20228;-66
2022/06/09 07:26:42;;;;;;;8.17;2.90;;;;;;;;;;5048324;28;20214;-65
2022/06/09 07:29:10;;;;;;;9.53;2.90;;;;;;;;;;5051398;28;20221;-65
2022/06/09 07:31:37;;;;;;;4.97;2.03;;;;;;;;;;5048456;28;20579;-64
2022/06/09 07:34:04;;;;;;;7.30;2.80;;;;;;;;;;5065088;28;20942;-66
2022/06/09 07:36:32;;;;;;;8.87;3.20;;;22.10;58.80;;;;;;5059923;28;20194;-64
2022/06/09 07:38:59;;;;;;;8.90;2.93;;;22.10;58.90;;;;;;5050220;28;20206;-67
2022/06/09 07:41:26;;;;;;;11.50;3.13;;;22.20;59.00;;;;;;5041803;28;20202;-65
2022/06/09 07:44:03;;;;;;;6.47;2.53;;;22.20;59.10;;;;;;5047167;28;20186;-64
2022/06/09 07:46:33;;;;;;;10.93;2.30;;;22.20;59.00;;;;;;5048966;28;20194;-67
2022/06/09 07:49:09;;;;;;;13.73;3.23;;;22.30;58.90;;;;;;5015638;28;20225;-68
2022/06/09 07:51:38;;;;;;;8.80;3.20;;;22.30;58.60;;;;;;5041627;28;20202;-68
2022/06/09 07:54:13;;;;;;;7.40;2.90;;;22.30;58.50;;;;;;5049438;28;20325;-68
2022/06/09 07:56:40;;;;;;;5.73;2.87;;;22.30;59.10;;;;;;5048658;28;20202;-66
2022/06/09 07:59:07;;;;;;;7.90;2.93;;;22.20;58.70;;;;;;5049411;28;20190;-68
2022/06/09 08:01:35;;;;;;;5.87;2.97;;;22.20;59.20;;;;;;5044805;28;20191;-65
2022/06/09 08:04:03;;;;;;;5.20;2.60;;;22.20;59.40;;;;;;5049645;28;20224;-67
2022/06/09 08:06:30;;;;;;;7.23;3.20;;;22.20;59.30;;;;;;5056085;28;20197;-65
2022/06/09 08:08:59;;;;;;;6.50;3.33;;;22.20;58.50;;;;;;5052523;28;20711;-65
2022/06/09 08:11:32;;;;;;;6.93;2.60;;;22.20;58.20;;;;;;5046962;28;20591;-69
2022/06/09 08:14:01;;;;;;;4.40;2.50;;;;;;;;;;5043896;28;20292;-68
2022/06/09 08:16:28;;;;;;;7.13;2.90;;;;;;;;;;5050988;28;20198;-69
2022/06/09 08:18:57;;;;;;;4.93;2.37;;;;;;;;;;5034634;28;20198;-68
2022/06/09 08:21:26;;;;;;;8.50;2.80;;;;;;;;;;5049932;28;20222;-66
2022/06/09 08:24:13;;;;;;;6.17;3.10;;;22.10;58.80;;;;;;5050509;28;20264;-63
2022/06/09 08:26:40;;;;;;;4.93;2.50;;;22.20;58.60;;;;;;5047151;28;20202;-66
2022/06/09 08:29:08;;;;;;;6.43;2.77;;;22.30;58.30;;;;;;5047654;28;20620;-69
2022/06/09 08:31:35;;;;;;;3.93;2.07;;;22.30;58.10;;;;;;5048984;28;20201;-67
2022/06/09 08:34:02;;;;;;;5.13;2.50;;;22.30;58.00;;;;;;5054694;28;20222;-66
2022/06/09 08:36:29;;;;;;;4.17;2.30;;;22.40;57.80;;;;;;5046129;28;20205;-65
2022/06/09 08:38:56;;;;;;;7.77;1.93;;;22.40;57.60;;;;;;5037497;28;20616;-65
2022/06/09 08:41:33;;;;;;;4.03;2.10;;;22.40;57.80;;;;;;5043332;28;20213;-65
2022/06/09 08:44:36;;;;;;;3.67;2.23;;;22.40;57.50;;;;;;5049169;28;20202;-64
2022/06/09 08:47:30;;;;;;;4.87;1.90;;;22.50;57.50;;;;;;5048048;28;20194;-65
2022/06/09 08:50:23;;;;;;;3.63;1.67;;;22.50;57.40;;;;;;5042738;28;20610;-65
2022/06/09 08:52:50;;;;;;;3.43;2.00;;;;;;;;;;5028111;28;20525;-63
2022/06/09 08:55:18;;;;;;;3.47;2.20;;;;;;;;;;5045998;28;20765;-63
2022/06/09 08:57:45;;;;;;;4.00;1.87;;;22.50;56.70;;;;;;5037923;28;20199;-63
2022/06/09 09:00:17;;;;;;;4.53;2.30;;;22.60;56.80;;;;;;5037929;28;20205;-66
2022/06/09 09:02:48;;;;;;;4.93;1.63;;;;;;;;;;5041848;28;20222;-70
2022/06/09 09:05:30;;;;;;;2.50;1.60;;;22.60;56.70;;;;;;5044218;28;20213;-70
2022/06/09 09:08:06;;;;;;;4.13;1.50;;;22.70;56.50;;;;;;5043061;28;20653;-69
2022/06/09 09:10:58;;;;;;;3.43;1.53;;;22.70;56.60;;;;;;5038323;28;20226;-68
2022/06/09 09:13:26;;;;;;;3.87;1.20;;;;;;;;;;5042029;28;20190;-66
2022/06/09 09:15:58;;;;;;;4.80;1.50;;;22.80;56.60;;;;;;5042204;28;20687;-63
2022/06/09 09:18:28;;;;;;;6.80;1.43;;;;;;;;;;5044850;28;20259;-63
2022/06/09 09:21:05;;;;;;;3.50;1.40;;;;;;;;;;5032105;28;20711;-63
2022/06/09 09:23:44;;;;;;;2.73;1.27;;;;;;;;;;5045096;28;20209;-63
2022/06/09 09:26:15;;;;;;;2.17;1.07;;;;;;;;;;5028577;28;20256;-63
2022/06/09 09:28:48;;;;;;;2.03;1.00;;;;;;;;;;5042089;28;20194;-64
2022/06/09 09:31:32;;;;;;;1.83;0.90;;;;;;;;;;5060958;28;20190;-68
2022/06/09 09:34:02;;;;;;;2.63;1.00;;;;;;;;;;5031362;28;20433;-67
2022/06/09 09:36:31;;;;;;;1.23;1.00;;;;;;;;;;5049051;28;20603;-64
2022/06/09 09:39:13;;;;;;;5.97;1.20;;;;;;;;;;5061783;28;20213;-64
2022/06/09 09:41:45;;;;;;;3.20;1.30;;;22.70;53.90;;;;;;5045791;28;20233;-63
2022/06/09 09:44:15;;;;;;;1.90;1.10;;;22.70;53.90;;;;;;5054919;28;20220;-64
2022/06/09 09:46:46;;;;;;;1.73;0.90;;;22.70;53.90;;;;;;5036290;28;20552;-63
2022/06/09 09:49:42;;;;;;;3.37;1.10;;;22.80;54.30;;;;;;5052929;28;20958;-64
2022/06/09 09:52:34;;;;;;;3.47;1.10;;;22.80;54.60;;;;;;5023685;28;20438;-65
2022/06/09 09:55:00;;;;;;;2.07;1.10;;;22.70;54.40;;;;;;5047582;28;20226;-65
2022/06/09 09:57:28;;;;;;;2.43;1.10;;;22.70;54.10;;;;;;5046726;28;20214;-63
2022/06/09 10:00:00;;;;;;;1.90;1.00;;;22.60;53.20;;;;;;5040923;28;20221;-63
2022/06/09 10:08:46;;;;;;;1.40;0.83;;;;;;;;;;5047071;28;20537;-64
2022/06/09 10:11:57;;;;;;;2.13;1.00;;;;;;;;;;5040637;28;20194;-66
2022/06/09 10:14:45;;;;;;;1.80;1.10;;;;;;;;;;5033815;28;20195;-63
2022/06/09 10:17:23;;;;;;;2.57;1.10;;;;;;;;;;5026284;28;20190;-67
2022/06/09 10:20:09;;;;;;;3.50;1.30;;;;;;;;;;5040686;28;20237;-65
2022/06/09 10:22:38;;;;;;;3.93;1.40;;;;;;;;;;5043870;28;20623;-66
2022/06/09 10:25:14;;;;;;;1.53;1.10;;;;;;;;;;5041206;28;20222;-65
2022/06/09 10:27:50;;;;;;;2.77;1.47;;;;;;;;;;5037362;28;21019;-63
2022/06/09 10:30:29;;;;;;;2.20;1.43;;;;;;;;;;5038492;28;20270;-64
2022/06/09 10:33:03;;;;;;;1.83;1.20;;;;;;;;;;5047089;28;20269;-64
2022/06/09 10:35:32;;;;;;;17.20;1.77;;;;;;;;;;5029348;28;20200;-64
2022/06/09 10:38:02;;;;;;;3.60;1.53;;;;;;;;;;5036886;28;20205;-62
2022/06/09 10:40:44;;;;;;;4.50;1.60;;;;;;;;;;5055795;28;20197;-62
2022/06/09 10:43:28;;;;;;;3.17;1.50;;;;;;;;;;5053614;28;20225;-62
2022/06/09 10:46:15;;;;;;;1.73;1.20;;;;;;;;;;5032004;28;20229;-61
2022/06/09 10:55:15;;;;;;;4.33;1.70;;;;;;;;;;5042661;28;20205;-61
2022/06/09 10:58:15;;;;;;;3.70;1.90;;;22.40;54.00;;;;;;5046434;28;20210;-64
2022/06/09 11:00:47;;;;;;;1.83;1.27;;;22.40;54.60;;;;;;5050828;28;20229;-66
2022/06/09 11:03:16;;;;;;;5.80;1.50;;;;;;;;;;5043483;28;20596;-65
2022/06/09 11:05:46;;;;;;;2.53;1.23;;;;;;;;;;5048822;28;20240;-65
2022/06/09 11:08:22;;;;;;;2.77;1.20;;;;;;;;;;5029512;28;20194;-66
2022/06/09 11:11:09;;;;;;;1.57;1.20;;;22.70;55.30;;;;;;5046530;28;20615;-66
2022/06/09 11:13:38;;;;;;;3.87;1.43;;;22.80;55.30;;;;;;5045560;28;20194;-65
2022/06/09 11:16:24;;;;;;;2.87;1.67;;;22.80;55.20;;;;;;5042173;28;20632;-69
2022/06/09 11:19:10;;;;;;;2.03;1.20;;;;;;;;;;5055353;28;20194;-68
2022/06/09 11:21:57;;;;;;;2.27;1.53;;;;;;;;;;5044142;28;20717;-66
2022/06/09 11:24:28;;;;;;;3.57;1.30;;;;;;;;;;5048519;28;20226;-66
2022/06/09 11:27:03;;;;;;;4.20;1.40;;;;;;;;;;5052440;28;20226;-64
2022/06/09 11:29:40;;;;;;;6.13;1.30;;;;;;;;;;5043836;28;20551;-66
2022/06/09 11:32:19;;;;;;;3.60;1.20;;;;;;;;;;5048913;28;20284;-67
2022/06/09 11:34:53;;;;;;;3.60;2.00;;;;;;;;;;5058906;28;20225;-66
2022/06/09 11:37:26;;;;;;;5.03;1.97;;;;;;;;;;5049994;28;20194;-66
2022/06/09 11:40:06;;;;;;;3.37;1.50;;;;;;;;;;5056464;28;20901;-66
2022/06/09 11:42:56;;;;;;;4.40;1.40;;;;;;;;;;5043938;28;20194;-66
2022/06/09 11:45:30;;;;;;;6.87;1.50;;;;;;;;;;5047853;28;20220;-64
2022/06/09 11:47:59;;;;;;;5.60;1.60;;;;;;;;;;5051081;28;20205;-66
2022/06/09 11:50:35;;;;;;;3.77;1.53;;;;;;;;;;5047170;28;20539;-67
2022/06/09 11:53:03;;;;;;;2.73;1.50;;;;;;;;;;5042933;28;20207;-66
2022/06/09 11:58:37;;;;;;;4.03;2.00;;;;;;;;;;5053057;28;20186;-66
2022/06/09 12:01:10;;;;;;;5.27;1.50;;;;;;;;;;5049978;28;20213;-65
2022/06/09 12:03:37;;;;;;;3.07;1.47;;;;;;;;;;5043646;28;20195;-66
2022/06/09 12:06:14;;;;;;;3.57;1.60;;;;;;;;;;5050093;28;20225;-66
2022/06/09 12:08:41;;;;;;;1.93;1.40;;;;;;;;;;5044184;28;20194;-66
2022/06/09 12:11:09;;;;;;;5.87;1.97;;;;;;;;;;5067520;28;20551;-65
2022/06/09 12:13:45;;;;;;;3.30;1.20;;;;;;;;;;5048205;28;20194;-65
2022/06/09 12:16:27;;;;;;;1.80;1.23;;;;;;;;;;5057752;28;20240;-65
2022/06/09 12:19:03;;;;;;;2.83;1.40;;;;;;;;;;5041452;28;20201;-65
2022/06/09 12:21:33;;;;;;;2.23;1.30;;;;;;;;;;5048862;28;20200;-66
2022/06/09 12:24:01;;;;;;;2.10;1.20;;;;;;;;;;5033703;28;20515;-67
2022/06/09 12:26:47;;;;;;;2.00;1.10;;;;;;;;;;5048276;28;20308;-67
2022/06/09 12:29:36;;;;;;;1.70;1.13;;;;;;;;;;5034105;28;20826;-67
2022/06/09 12:32:06;;;;;;;2.67;1.30;;;;;;;;;;5057989;28;20209;-66
2022/06/09 12:34:37;;;;;;;5.53;1.53;;;;;;;;;;5048656;28;20222;-65
2022/06/09 12:37:05;;;;;;;2.37;1.37;;;;;;;;;;5049056;28;20194;-64
2022/06/09 12:39:35;;;;;;;2.83;1.47;;;;;;;;;;5042769;28;20205;-64
2022/06/09 12:42:06;;;;;;;3.43;1.53;;;;;;;;;;5031072;28;20211;-64
2022/06/09 12:44:45;;;;;;;2.93;1.50;;;;;;;;;;5052365;28;20222;-64
2022/06/09 12:47:21;;;;;;;3.10;1.60;;;;;;;;;;5044578;28;20213;-65
2022/06/09 12:49:50;;;;;;;4.17;1.70;;;;;;;;;;5048194;28;20191;-67
2022/06/09 12:52:25;;;;;;;3.73;1.60;;;;;;;;;;5023307;28;20206;-68
2022/06/09 12:54:59;;;;;;;3.97;1.20;;;;;;;;;;5045578;28;20560;-68
2022/06/09 12:57:29;;;;;;;5.93;1.67;;;;;;;;;;5050696;28;20198;-65
2022/06/09 13:00:13;;;;;;;2.27;1.30;;;;;;;;;;5030317;28;20207;-64
2022/06/09 13:02:45;;;;;;;5.00;1.53;;;;;;;;;;5047220;28;20202;-65
2022/06/09 13:05:20;;;;;;;3.67;1.27;;;;;;;;;;5044638;28;20210;-66
2022/06/09 13:07:55;;;;;;;2.43;1.20;;;;;;;;;;5044101;28;20230;-67
2022/06/09 13:10:33;;;;;;;6.43;1.53;;;;;;;;;;5049839;28;20185;-64
2022/06/09 13:13:22;;;;;;;2.50;1.00;;;;;;;;;;5030968;28;20232;-63
2022/06/09 13:15:58;;;;;;;3.77;1.20;;;;;;;;;;5038324;28;20197;-67
2022/06/09 13:18:33;;;;;;;2.67;1.10;;;;;;;;;;5054794;28;20205;-68
2022/06/09 13:21:18;;;;;;;7.27;1.40;;;;;;;;;;5043885;28;20651;-66
2022/06/09 13:23:53;;;;;;;3.73;1.20;;;;;;;;;;5036698;28;20213;-65
2022/06/09 13:26:28;;;;;;;7.37;1.30;;;;;;;;;;5051986;28;20205;-65
2022/06/09 13:29:00;;;;;;;1.50;1.10;;;;;;;;;;5044388;28;20244;-65
2022/06/09 13:31:38;;;;;;;2.67;1.20;;;;;;;;;;5048514;28;20193;-65
2022/06/09 13:34:21;;;;;;;3.27;1.40;;;;;;;;;;5046581;28;20230;-66
2022/06/09 13:36:53;;;;;;;1.83;1.10;;;;;;;;;;5047154;28;20201;-65
2022/06/09 13:39:43;;;;;;;5.00;1.10;;;;;;;;;;5048423;28;20286;-66
2022/06/09 13:42:19;;;;;;;1.90;1.17;;;;;;;;;;5049293;28;20215;-66
2022/06/09 13:45:02;;;;;;;3.43;1.40;;;;;;;;;;5013585;28;20198;-65
2022/06/09 13:47:35;;;;;;;5.90;1.20;;;;;;;;;;5051566;28;20253;-68
2022/06/09 13:50:14;;;;;;;1.83;1.00;;;;;;;;;;5038978;28;20718;-67
2022/06/09 13:52:50;;;;;;;1.73;1.20;;;;;;;;;;5045368;28;20229;-67
2022/06/09 13:55:26;;;;;;;2.70;1.17;;;;;;;;;;5029928;28;20194;-63
2022/06/09 13:57:58;;;;;;;2.20;1.30;;;;;;;;;;5031886;28;20208;-63
2022/06/09 14:00:39;;;;;;;5.33;1.60;;;;;;;;;;5028599;28;20898;-65
2022/06/09 14:03:13;;;;;;;4.20;1.10;;;;;;;;;;5045789;28;20410;-67
2022/06/09 14:05:54;;;;;;;4.23;1.50;;;;;;;;;;5040033;28;20279;-69
2022/06/09 14:08:24;;;;;;;2.33;1.40;;;;;;;;;;5053058;28;20186;-69
2022/06/09 14:10:57;;;;;;;3.07;1.33;;;;;;;;;;5032506;28;20210;-68
2022/06/09 14:13:29;;;;;;;5.40;1.10;;;;;;;;;;5028972;28;20185;-68
2022/06/09 14:16:00;;;;;;;8.90;1.60;;;;;;;;;;5043377;28;20943;-67
2022/06/09 14:18:30;;;;;;;3.63;1.60;;;;;;;;;;5011319;28;20644;-66
2022/06/09 14:20:57;;;;;;;2.97;1.27;;;;;;;;;;5043537;28;20206;-68
2022/06/09 14:23:34;;;;;;;6.23;1.30;;;;;;;;;;5044754;28;20213;-67
2022/06/09 14:26:03;;;;;;;4.30;1.70;;;;;;;;;;5046536;28;20229;-67
2022/06/09 14:28:31;;;;;;;3.63;1.60;;;;;;;;;;5052520;28;20225;-67
2022/06/09 14:31:01;;;;;;;6.93;1.60;;;;;;;;;;5037875;28;20756;-67
2022/06/09 14:33:32;;;;;;;4.67;1.60;;;;;;;;;;5044496;28;20222;-67
2022/06/09 14:36:02;;;;;;;2.77;1.37;;;;;;;;;;5039901;28;20251;-69
2022/06/09 14:38:33;;;;;;;3.87;1.67;;;;;;;;;;5042602;28;20206;-71
2022/06/09 14:41:05;;;;;;;3.90;1.33;;;;;;;;;;5043514;28;20257;-70
2022/06/09 14:43:34;;;;;;;4.70;1.40;;;;;;;;;;5044231;28;20206;-69
2022/06/09 14:46:07;;;;;;;2.13;1.40;;;;;;;;;;5043754;28;20237;-70
2022/06/09 14:48:40;;;;;;;3.20;1.30;;;;;;;;;;5046278;28;20201;-66
2022/06/09 14:51:13;;;;;;;3.07;1.37;;;;;;;;;;5040657;28;20198;-67
2022/06/09 14:53:54;;;;;;;3.67;1.50;;;;;;;;;;5041760;28;20233;-66
2022/06/09 14:56:27;;;;;;;3.70;1.40;;;;;;;;;;5045145;28;20198;-63
2022/06/09 14:59:00;;;;;;;2.97;1.37;;;;;;;;;;5043388;28;20549;-63
2022/06/09 15:01:32;;;;;;;3.17;1.33;;;;;;;;;;5025919;28;20230;-63
2022/06/09 15:04:02;;;;;;;2.43;1.43;;;;;;;;;;5038785;28;20214;-63
2022/06/09 15:06:37;;;;;;;2.70;1.30;;;;;;;;;;5042663;28;20217;-62
2022/06/09 15:09:06;;;;;;;3.70;1.50;;;;;;;;;;5040200;28;20844;-62